Time;durP1;ratioP1;P1;durP2;ratioP2;P2;SDS_P1;SDS_P2;PMS_P1;PMS_P2;Temp;Humidity;BMP_temperature;BMP_pressure;BME280_temperature;BME280_humidity;BME280_pressure;Samples;Min_cycle;Max_cycle;Signal;HPM_P1;HPM_P2
2022/12/07 00:01:07;;;;;;;14.32;7.20;;;;;;;5.55;71.21;100852.84;4167979;28;20029;-70
2022/12/07 00:03:09;;;;;;;11.23;7.50;;;;;;;5.52;70.78;100851.81;4157972;28;20060;-70
2022/12/07 00:05:12;;;;;;;12.05;7.45;;;;;;;5.48;70.68;100848.25;4165148;28;20042;-71
2022/12/07 00:07:15;;;;;;;13.07;8.35;;;;;;;5.49;70.78;100839.69;4164159;28;20045;-71
2022/12/07 00:09:19;;;;;;;11.18;7.18;;;;;;;5.51;70.72;100838.03;4165539;28;20099;-71
2022/12/07 00:11:23;;;;;;;11.32;7.75;;;;;;;5.40;70.64;100844.44;4165575;28;20045;-70
2022/12/07 00:13:26;;;;;;;12.57;7.93;;;;;;;5.27;70.37;100842.19;4154170;28;20041;-70
2022/12/07 00:15:29;;;;;;;12.23;7.25;;;;;;;5.26;70.55;100838.75;4150550;28;20060;-70
2022/12/07 00:17:33;;;;;;;11.35;7.32;;;;;;;5.23;70.41;100838.63;4146024;28;20041;-70
2022/12/07 00:19:42;;;;;;;12.25;7.47;;;;;;;5.20;70.38;100841.06;4167513;28;20394;-70
2022/12/07 00:21:44;;;;;;;9.40;6.25;;;;;;;5.27;70.33;100839.59;4181871;28;20037;-70
2022/12/07 00:23:49;;;;;;;12.93;7.32;;;;;;;5.34;70.61;100829.59;4181460;28;20075;-70
2022/12/07 00:25:52;;;;;;;10.23;6.65;;;;;;;5.38;70.30;100828.06;4164164;28;20407;-70
2022/12/07 00:27:56;;;;;;;12.13;7.88;;;;;;;5.44;70.29;100830.00;4161619;28;20041;-71
2022/12/07 00:29:59;;;;;;;14.57;8.07;;;;;;;5.45;70.41;100821.44;4168432;28;20053;-70
2022/12/07 00:32:02;;;;;;;10.07;7.15;;;;;;;5.49;70.31;100821.66;4174998;28;20047;-70
2022/12/07 00:34:07;;;;;;;11.32;7.22;;;;;;;5.51;70.38;100822.56;4164654;28;20045;-70
2022/12/07 00:36:13;;;;;;;12.30;7.75;;;;;;;5.49;70.30;100821.66;4165157;28;20041;-70
2022/12/07 00:38:16;;;;;;;13.43;7.47;;;;;;;5.49;70.27;100811.31;4165139;28;20030;-70
2022/12/07 00:40:18;;;;;;;15.32;7.07;;;;;;;5.53;70.43;100804.59;4165054;28;20045;-70
2022/12/07 00:42:21;;;;;;;10.05;6.63;;;;;;;5.53;70.11;100815.75;4165074;28;20045;-70
2022/12/07 00:44:24;;;;;;;12.23;7.25;;;;;;;5.54;70.17;100816.66;4164920;28;20051;-69
2022/12/07 00:46:27;;;;;;;8.82;6.50;;;;;;;5.45;69.92;100827.50;4161548;28;20045;-69
2022/12/07 00:48:31;;;;;;;10.30;7.10;;;;;;;5.34;70.02;100819.28;4162279;28;20373;-69
2022/12/07 00:50:35;;;;;;;12.55;7.43;;;;;;;5.28;69.75;100818.19;4154358;28;20045;-70
2022/12/07 00:52:38;;;;;;;11.32;7.55;;;;;;;5.33;70.11;100821.81;4147668;28;20030;-69
2022/12/07 00:54:41;;;;;;;10.45;6.57;;;;;;;5.39;70.29;100825.53;4148188;28;20092;-70
2022/12/07 00:56:43;;;;;;;12.98;7.55;;;;;;;5.42;70.44;100817.06;4148286;28;20488;-70
2022/12/07 00:58:51;;;;;;;11.93;7.50;;;;;;;5.44;70.44;100817.97;4154135;28;20034;-70
2022/12/07 01:00:54;;;;;;;12.80;8.05;;;;;;;5.44;70.38;100820.56;4150739;28;20073;-70
2022/12/07 01:02:57;;;;;;;11.55;6.50;;;;;;;5.47;70.93;100819.81;4150595;28;20038;-70
2022/12/07 01:04:59;;;;;;;11.85;8.05;;;;;;;5.48;70.90;100826.75;4163668;28;20396;-70
2022/12/07 01:07:04;;;;;;;10.98;7.18;;;;;;;5.50;70.61;100825.97;4164699;28;20045;-70
2022/12/07 01:09:06;;;;;;;12.90;7.65;;;;;;;5.47;70.28;100825.84;4162564;28;20041;-70
2022/12/07 01:11:13;;;;;;;10.32;7.30;;;;;;;5.46;70.22;100824.09;4164572;28;20045;-70
2022/12/07 01:13:17;;;;;;;10.68;7.28;;;;;;;5.46;70.12;100829.25;4155699;28;20048;-70
2022/12/07 01:15:19;;;;;;;12.35;7.97;;;;;;;5.46;70.27;100824.09;4148079;28;20523;-70
2022/12/07 01:17:22;;;;;;;10.57;7.47;;;;;;;5.47;70.64;100824.97;4157597;28;20099;-70
2022/12/07 01:19:25;;;;;;;10.48;7.68;;;;;;;5.46;70.53;100824.09;4146371;28;20042;-70
2022/12/07 01:21:32;;;;;;;13.10;8.25;;;;;;;5.47;70.11;100819.81;4163881;28;20040;-70
2022/12/07 01:23:37;;;;;;;11.77;7.22;;;;;;;5.47;70.27;100819.81;4161162;28;20045;-69
2022/12/07 01:25:40;;;;;;;12.48;7.80;;;;;;;5.47;70.28;100822.38;4161772;28;20133;-70
2022/12/07 01:27:43;;;;;;;14.30;8.02;;;;;;;5.46;70.39;100818.94;4159029;28;20030;-70
2022/12/07 01:29:45;;;;;;;11.15;7.00;;;;;;;5.47;70.55;100820.69;4149113;28;20385;-70
2022/12/07 01:31:50;;;;;;;12.25;7.22;;;;;;;5.45;70.34;100817.16;4159672;28;20529;-70
2022/12/07 01:33:54;;;;;;;12.07;7.00;;;;;;;5.42;70.51;100807.59;4156227;28;20034;-70
2022/12/07 01:36:02;;;;;;;10.15;6.90;;;;;;;5.43;70.76;100811.06;4164250;28;20042;-70
2022/12/07 01:38:05;;;;;;;11.82;6.93;;;;;;;5.41;71.01;100804.97;4164278;28;20046;-70
2022/12/07 01:40:12;;;;;;;11.70;7.45;;;;;;;5.45;70.98;100809.44;4164253;28;20045;-69
2022/12/07 01:42:15;;;;;;;12.07;8.05;;;;;;;5.50;71.00;100810.50;4162613;28;20091;-69
2022/12/07 01:44:21;;;;;;;12.05;7.70;;;;;;;5.60;70.38;100814.31;4158228;28;20076;-70
2022/12/07 01:46:24;;;;;;;13.18;7.80;;;;;;;5.59;69.81;100826.34;4162080;28;20038;-69
2022/12/07 01:48:29;;;;;;;11.77;7.28;;;;;;;5.52;69.63;100834.66;4164035;28;20120;-69
2022/12/07 01:50:32;;;;;;;10.80;7.05;;;;;;;5.47;69.82;100831.00;4162174;28;20042;-70
2022/12/07 01:52:38;;;;;;;10.02;6.70;;;;;;;5.39;70.15;100832.41;4156831;28;20041;-69
2022/12/07 01:54:41;;;;;;;11.45;7.45;;;;;;;5.37;70.31;100824.59;4162360;28;20516;-70
2022/12/07 01:56:51;;;;;;;11.32;6.78;;;;;;;5.35;70.53;100831.38;4147728;28;20057;-70
2022/12/07 01:58:57;;;;;;;14.15;7.43;;;;;;;5.34;70.78;100826.16;4156731;28;20037;-70
2022/12/07 02:01:00;;;;;;;11.02;7.18;;;;;;;5.33;70.90;100825.28;4150192;28;20041;-70
2022/12/07 02:03:07;;;;;;;11.27;6.57;;;;;;;5.32;71.25;100826.09;4162488;28;20072;-69
2022/12/07 02:05:10;;;;;;;10.55;6.20;;;;;;;5.28;71.13;100818.19;4162436;28;20049;-70
2022/12/07 02:07:13;;;;;;;9.90;6.93;;;;;;;5.27;71.11;100826.72;4162005;28;20043;-69
2022/12/07 02:09:16;;;;;;;13.80;7.13;;;;;;;5.27;70.95;100814.72;4161146;28;20037;-69
2022/12/07 02:11:20;;;;;;;10.88;6.50;;;;;;;5.27;71.20;100813.84;4166602;28;20484;-70
2022/12/07 02:13:27;;;;;;;10.60;7.13;;;;;;;5.25;71.35;100813.78;4165462;28;20046;-69
2022/12/07 02:15:40;;;;;;;11.05;7.97;;;;;;;5.22;71.22;100813.66;4164264;28;20056;-70
2022/12/07 02:17:57;;;;;;;13.20;7.60;;;;;;;5.21;71.27;100806.72;4165752;28;20037;-69
2022/12/07 02:20:12;;;;;;;13.70;8.02;;;;;;;5.19;71.14;100814.38;4153410;28;20046;-70
2022/12/07 02:22:31;;;;;;;14.40;7.80;;;;;;;5.18;71.13;100816.91;4166830;28;20045;-69
2022/12/07 02:24:49;;;;;;;14.02;8.10;;;;;;;5.16;71.11;100810.81;4150429;28;20096;-69
2022/12/07 02:27:17;;;;;;;13.75;6.82;;;;;;;5.18;71.18;100797.19;4154564;28;20111;-69
2022/12/07 02:29:25;;;;;;;10.85;6.32;;;;;;;5.19;71.34;100783.47;4165919;28;20045;-69
2022/12/07 02:31:31;;;;;;;10.77;6.90;;;;;;;5.16;71.46;100773.03;4160250;28;20033;-70
2022/12/07 02:33:37;;;;;;;12.27;7.00;;;;;;;5.14;71.63;100758.31;4164877;28;20088;-69
2022/12/07 02:35:44;;;;;;;12.55;7.05;;;;;;;4.89;71.95;100763.34;4159153;28;20124;-69
2022/12/07 02:37:59;;;;;;;13.00;7.65;;;;;;;5.01;71.41;100787.88;4163971;28;20103;-69
2022/12/07 02:40:08;;;;;;;13.88;7.30;;;;;;;5.04;71.02;100794.03;4161701;28;20065;-69
2022/12/07 02:42:17;;;;;;;14.10;7.40;;;;;;;5.07;70.63;100801.00;4182212;28;20064;-69
2022/12/07 02:44:25;;;;;;;10.73;6.65;;;;;;;5.10;70.39;100808.00;4151240;28;20045;-70
2022/12/07 02:46:33;;;;;;;13.23;6.82;;;;;;;5.04;70.68;100796.59;4164620;28;20403;-70
2022/12/07 02:48:38;;;;;;;14.50;8.27;;;;;;;5.02;70.82;100800.81;4165980;28;20129;-70
2022/12/07 02:50:46;;;;;;;14.73;7.32;;;;;;;5.00;71.15;100797.28;4156959;28;20476;-69
2022/12/07 02:52:49;;;;;;;15.07;7.78;;;;;;;5.00;71.12;100801.56;4154169;28;20052;-69
2022/12/07 02:54:52;;;;;;;14.05;7.47;;;;;;;5.00;71.27;100796.41;4163348;28;20057;-70
2022/12/07 02:57:04;;;;;;;12.02;7.45;;;;;;;5.05;71.33;100794.88;4165875;28;20458;-70
2022/12/07 02:59:16;;;;;;;14.48;8.85;;;;;;;5.04;71.24;100786.28;4150363;28;20045;-69
2022/12/07 03:01:30;;;;;;;10.32;6.88;;;;;;;5.06;71.29;100778.63;4153144;28;20095;-69
2022/12/07 03:03:36;;;;;;;15.43;7.85;;;;;;;5.05;71.07;100789.75;4165577;28;20107;-69
2022/12/07 03:06:00;;;;;;;13.73;7.78;;;;;;;5.07;70.89;100790.69;4164029;28;20084;-69
2022/12/07 03:08:10;;;;;;;11.60;7.22;;;;;;;5.06;70.74;100786.34;4154925;28;20061;-69
2022/12/07 03:10:19;;;;;;;10.05;6.80;;;;;;;5.07;71.16;100786.41;4162002;28;20037;-69
2022/12/07 03:12:32;;;;;;;12.38;7.28;;;;;;;5.09;71.09;100783.91;4155541;28;20041;-69
2022/12/07 03:14:40;;;;;;;11.95;7.00;;;;;;;5.08;70.95;100774.41;4164861;28;20060;-69
2022/12/07 03:16:50;;;;;;;9.73;6.75;;;;;;;5.09;71.13;100776.16;4156247;28;20056;-69
2022/12/07 03:18:56;;;;;;;11.05;6.72;;;;;;;5.07;71.02;100772.66;4165651;28;20099;-69
2022/12/07 03:21:14;;;;;;;12.25;7.35;;;;;;;5.06;70.92;100765.75;4163142;28;20492;-70
2022/12/07 03:23:26;;;;;;;11.60;6.50;;;;;;;5.03;71.01;100769.06;4159368;28;20586;-69
2022/12/07 03:25:30;;;;;;;10.77;6.82;;;;;;;5.03;71.08;100757.88;4157619;28;20116;-69
2022/12/07 03:27:37;;;;;;;12.07;6.47;;;;;;;5.03;71.20;100765.63;4164556;28;20480;-69
2022/12/07 03:29:47;;;;;;;11.88;6.55;;;;;;;5.03;71.15;100765.63;4163200;28;20389;-69
2022/12/07 03:31:59;;;;;;;11.90;7.35;;;;;;;5.02;71.18;100766.41;4157012;28;20099;-70
2022/12/07 03:34:07;;;;;;;11.57;6.72;;;;;;;5.00;71.56;100762.91;4158928;28;20404;-70
2022/12/07 03:36:18;;;;;;;9.02;5.78;;;;;;;5.04;70.96;100757.06;4149939;28;20068;-69
2022/12/07 03:38:25;;;;;;;11.05;6.70;;;;;;;5.04;71.16;100762.22;4158220;28;20045;-69
2022/12/07 03:40:34;;;;;;;8.98;5.93;;;;;;;5.07;71.30;100752.03;4158823;28;20034;-70
2022/12/07 03:42:37;;;;;;;8.85;5.68;;;;;;;5.05;71.27;100749.41;4164044;28;21250;-70
2022/12/07 03:44:41;;;;;;;10.40;6.90;;;;;;;5.05;71.17;100748.50;4151003;28;20053;-69
2022/12/07 03:46:51;;;;;;;11.40;6.78;;;;;;;5.11;70.97;100747.88;4158384;28;20037;-69
2022/12/07 03:49:04;;;;;;;8.80;6.10;;;;;;;5.11;70.68;100748.78;4162434;28;20049;-69
2022/12/07 03:51:14;;;;;;;11.02;7.15;;;;;;;5.09;70.51;100752.09;4156220;28;20042;-69
2022/12/07 03:53:23;;;;;;;9.60;5.13;;;;;;;5.05;70.72;100756.25;4159316;28;20048;-69
2022/12/07 03:55:30;;;;;;;9.18;6.18;;;;;;;5.04;70.52;100757.94;4157581;28;20046;-69
2022/12/07 03:57:35;;;;;;;9.20;5.75;;;;;;;5.10;70.47;100757.31;4156584;28;20060;-69
2022/12/07 03:59:38;;;;;;;;;;;;;;;4.96;70.25;100761.03;4149813;28;20455;-69
2022/12/07 04:01:43;;;;;;;10.15;6.10;;;;;;;4.98;70.68;100761.94;4151739;28;19925;-69
2022/12/07 04:03:46;;;;;;;;;;;;;;;4.92;70.58;100754.88;4161897;28;20042;-69
2022/12/07 04:05:50;;;;;;;11.27;6.82;;;;;;;4.94;70.63;100753.22;4164144;28;20342;-69
2022/12/07 04:07:53;;;;;;;9.95;6.25;;;;;;;4.98;70.80;100754.22;4160603;28;20033;-69
2022/12/07 04:09:56;;;;;;;8.40;5.75;;;;;;;4.88;70.61;100748.69;4164851;28;20038;-69
2022/12/07 04:11:59;;;;;;;11.25;6.20;;;;;;;4.92;70.55;100747.16;4165552;28;20049;-69
2022/12/07 04:14:20;;;;;;;11.25;6.70;;;;;;;5.00;70.60;100750.91;4149861;28;20042;-69
2022/12/07 04:16:22;;;;;;;9.93;6.80;;;;;;;5.02;70.43;100753.53;4148873;28;20038;-69
2022/12/07 04:18:25;;;;;;;9.77;6.22;;;;;;;5.09;70.14;100750.41;4160507;28;20044;-69
2022/12/07 04:20:28;;;;;;;13.05;6.53;;;;;;;5.05;69.97;100749.41;4163386;28;20053;-69
2022/12/07 04:22:32;;;;;;;8.65;5.47;;;;;;;5.09;70.01;100755.56;4149178;28;20037;-69
2022/12/07 04:24:35;;;;;;;10.98;6.32;;;;;;;5.04;70.63;100754.50;4148625;28;20519;-69
2022/12/07 04:26:38;;;;;;;8.57;5.05;;;;;;;5.09;70.52;100755.56;4148790;28;20045;-69
2022/12/07 04:28:41;;;;;;;9.30;6.00;;;;;;;5.03;70.02;100752.72;4157940;28;20037;-69
2022/12/07 04:30:44;;;;;;;9.82;5.78;;;;;;;5.01;69.84;100768.13;4163718;28;20041;-69
2022/12/07 04:32:47;;;;;;;9.48;6.20;;;;;;;4.93;69.63;100764.34;4158874;28;20041;-69
2022/12/07 04:34:49;;;;;;;12.05;5.80;;;;;;;4.84;69.80;100772.56;4159032;28;20095;-69
2022/12/07 04:36:57;;;;;;;8.80;5.47;;;;;;;4.71;70.22;100768.56;4180484;28;20381;-69
2022/12/07 04:39:02;;;;;;;10.07;6.15;;;;;;;4.74;70.60;100759.25;4160703;28;20042;-69
2022/12/07 04:41:06;;;;;;;9.18;6.05;;;;;;;4.82;70.79;100761.31;4166133;28;20045;-69
2022/12/07 04:43:09;;;;;;;8.95;6.10;;;;;;;4.90;71.25;100757.34;4164982;28;20068;-69
2022/12/07 04:45:12;;;;;;;8.57;5.65;;;;;;;4.98;71.66;100747.41;4176659;28;20076;-69
2022/12/07 04:47:15;;;;;;;9.85;6.65;;;;;;;5.01;72.04;100752.66;4181629;28;20049;-69
2022/12/07 04:49:20;;;;;;;10.20;6.38;;;;;;;4.96;72.33;100753.28;4181448;28;20068;-69
2022/12/07 04:51:25;;;;;;;9.82;6.03;;;;;;;4.80;72.42;100750.06;4178703;28;20441;-69
2022/12/07 04:53:28;;;;;;;9.50;6.18;;;;;;;4.86;72.45;100754.59;4161676;28;20550;-69
2022/12/07 04:55:32;;;;;;;10.60;6.78;;;;;;;4.81;72.50;100750.97;4162422;28;20476;-69
2022/12/07 04:57:35;;;;;;;8.50;5.70;;;;;;;4.80;72.84;100755.22;4158771;28;20476;-69
2022/12/07 04:59:38;;;;;;;10.02;5.97;;;;;;;4.80;73.23;100752.63;4160601;28;20058;-69
2022/12/07 05:01:47;;;;;;;9.75;6.32;;;;;;;4.81;73.41;100745.81;4157289;28;20122;-69
2022/12/07 05:03:50;;;;;;;10.57;6.88;;;;;;;4.85;73.19;100748.56;4180846;28;20047;-70
2022/12/07 05:05:53;;;;;;;10.55;6.38;;;;;;;4.81;73.71;100746.69;4175092;28;20037;-70
2022/12/07 05:07:57;;;;;;;10.02;6.72;;;;;;;4.81;73.76;100746.69;4161251;28;20045;-70
2022/12/07 05:10:00;;;;;;;9.07;5.95;;;;;;;4.79;73.75;100740.59;4158324;28;20038;-70
2022/12/07 05:12:05;;;;;;;10.70;6.00;;;;;;;4.86;73.44;100742.63;4163323;28;20060;-70
2022/12/07 05:14:11;;;;;;;12.68;7.15;;;;;;;4.86;73.60;100752.91;4162665;28;20395;-70
2022/12/07 05:16:14;;;;;;;9.63;6.88;;;;;;;4.83;73.98;100745.06;4158011;28;20084;-69
2022/12/07 05:18:17;;;;;;;12.70;6.38;;;;;;;4.85;74.00;100746.00;4163772;28;20037;-70
2022/12/07 05:20:20;;;;;;;8.65;5.80;;;;;;;4.84;74.19;100740.78;4153780;28;20038;-69
2022/12/07 05:22:25;;;;;;;9.10;6.10;;;;;;;4.85;74.15;100739.97;4150980;28;20041;-69
2022/12/07 05:24:27;;;;;;;11.57;6.57;;;;;;;4.87;73.99;100751.22;4158870;28;20037;-69
2022/12/07 05:26:30;;;;;;;11.45;6.47;;;;;;;4.84;73.72;100745.94;4154931;28;20038;-71
2022/12/07 05:28:35;;;;;;;12.10;6.63;;;;;;;4.82;73.56;100743.28;4177208;28;20040;-70
2022/12/07 05:30:38;;;;;;;12.60;7.13;;;;;;;4.81;73.71;100738.94;4170631;28;20102;-70
2022/12/07 05:32:40;;;;;;;13.05;7.40;;;;;;;4.85;73.87;100739.97;4162815;28;20042;-67
2022/12/07 05:34:43;;;;;;;10.63;6.43;;;;;;;4.85;73.90;100735.69;4146418;28;20503;-67
2022/12/07 05:36:46;;;;;;;10.40;6.53;;;;;;;4.86;74.00;100742.63;4151725;28;20049;-70
2022/12/07 05:38:49;;;;;;;11.18;5.57;;;;;;;5.00;75.26;100734.56;4168004;28;20042;-62
2022/12/07 05:40:52;;;;;;;10.80;5.80;;;;;;;5.57;77.66;100735.13;4164311;28;20045;-59
2022/12/07 05:42:54;;;;;;;8.90;5.45;;;;;;;5.87;76.19;100731.97;4158890;28;20038;-67
2022/12/07 05:45:03;;;;;;;9.18;5.90;;;;;;;5.80;74.25;100731.66;4163111;28;20044;-67
2022/12/07 05:47:06;;;;;;;10.13;6.50;;;;;;;5.55;73.41;100734.19;4150176;28;20092;-68
2022/12/07 05:49:09;;;;;;;10.45;6.80;;;;;;;5.47;73.11;100737.31;4162406;28;20053;-68
2022/12/07 05:51:11;;;;;;;8.02;5.45;;;;;;;5.27;73.42;100744.22;4164018;28;20033;-70
2022/12/07 05:53:14;;;;;;;9.18;6.05;;;;;;;5.14;73.28;100743.75;4163931;28;20128;-67
2022/12/07 05:55:24;;;;;;;11.57;6.50;;;;;;;5.00;73.81;100740.59;4164115;28;20061;-67
2022/12/07 05:57:27;;;;;;;10.52;6.85;;;;;;;4.97;74.19;100744.75;4162852;28;20049;-67
2022/12/07 05:59:29;;;;;;;8.38;6.20;;;;;;;4.96;74.15;100743.00;4164029;28;20045;-67
2022/12/07 06:01:33;;;;;;;10.05;7.22;;;;;;;4.96;74.19;100740.41;4164317;28;20037;-68
2022/12/07 06:03:36;;;;;;;10.15;7.05;;;;;;;4.94;74.21;100744.63;4161968;28;20041;-67
2022/12/07 06:05:40;;;;;;;11.07;6.20;;;;;;;4.89;74.47;100747.88;4160958;28;20041;-67
2022/12/07 06:07:42;;;;;;;12.43;6.97;;;;;;;4.92;74.80;100743.66;4162758;28;20033;-68
2022/12/07 06:09:45;;;;;;;10.02;6.32;;;;;;;4.86;74.84;100745.19;4163832;28;20040;-67
2022/12/07 06:14:08;;;;;;;10.45;6.90;;;;;;;4.81;74.98;100746.69;4162452;28;20448;-67
2022/12/07 06:16:11;;;;;;;11.35;7.10;;;;;;;4.85;74.81;100751.16;4163959;28;20037;-67
2022/12/07 06:18:15;;;;;;;10.18;6.97;;;;;;;4.89;74.67;100747.88;4158130;28;20052;-67
2022/12/07 06:20:18;;;;;;;10.93;7.53;;;;;;;4.87;74.78;100748.63;4162524;28;20041;-67
2022/12/07 06:22:21;;;;;;;12.77;8.40;;;;;;;4.87;74.61;100754.66;4164144;28;20076;-67
2022/12/07 06:24:24;;;;;;;10.15;6.90;;;;;;;4.83;74.54;100752.78;4163601;28;20403;-69
2022/12/07 06:26:27;;;;;;;10.88;6.88;;;;;;;4.84;74.72;100751.09;4163837;28;20404;-69
2022/12/07 06:28:30;;;;;;;13.02;7.13;;;;;;;4.83;75.00;100747.63;4162725;28;20048;-69
2022/12/07 06:30:33;;;;;;;9.80;6.72;;;;;;;4.84;75.11;100751.94;4163793;28;20091;-69
2022/12/07 06:32:37;;;;;;;10.32;6.45;;;;;;;4.84;74.98;100754.53;4160980;28;20473;-66
2022/12/07 06:34:41;;;;;;;14.57;7.22;;;;;;;4.87;75.04;100753.78;4162164;28;20041;-67
2022/12/07 06:36:44;;;;;;;12.02;7.18;;;;;;;4.86;75.03;100745.19;4164138;28;20084;-66
2022/12/07 06:38:47;;;;;;;12.55;7.03;;;;;;;4.89;75.03;100753.03;4164000;28;20052;-67
2022/12/07 06:40:50;;;;;;;11.07;7.65;;;;;;;4.90;75.15;100753.91;4163829;28;20034;-69
2022/12/07 06:42:54;;;;;;;10.67;6.67;;;;;;;4.93;75.33;100755.75;4163798;28;20137;-69
2022/12/07 06:44:57;;;;;;;11.48;6.72;;;;;;;4.94;75.14;100752.38;4163426;28;20091;-67
2022/12/07 06:47:00;;;;;;;12.95;7.70;;;;;;;4.92;75.17;100753.97;4163809;28;20087;-67
2022/12/07 06:49:22;;;;;;;9.45;6.40;;;;;;;4.90;75.11;100757.34;4159905;28;20037;-69
2022/12/07 06:51:26;;;;;;;11.40;7.35;;;;;;;4.96;74.94;100758.44;4162405;28;20033;-67
2022/12/07 06:53:29;;;;;;;11.05;7.32;;;;;;;4.94;75.11;100749.78;4162325;28;20087;-67
2022/12/07 06:55:32;;;;;;;12.13;7.85;;;;;;;4.97;75.33;100752.50;4164035;28;20486;-67
2022/12/07 06:57:35;;;;;;;12.77;7.65;;;;;;;4.99;75.17;100756.00;4165753;28;20049;-67
2022/12/07 06:59:38;;;;;;;10.80;7.03;;;;;;;4.99;75.38;100753.41;4166613;28;20049;-67
2022/12/07 07:01:41;;;;;;;9.68;6.82;;;;;;;5.00;75.33;100761.22;4166695;28;20095;-67
2022/12/07 07:03:44;;;;;;;9.93;7.32;;;;;;;5.01;75.44;100760.41;4157495;28;20037;-67
2022/12/07 07:05:47;;;;;;;11.30;7.32;;;;;;;5.01;75.19;100762.09;4166215;28;20037;-67
2022/12/07 07:07:51;;;;;;;10.35;7.40;;;;;;;5.02;75.31;100769.00;4166521;28;20388;-67
2022/12/07 07:10:14;;;;;;;11.60;7.90;;;;;;;4.98;75.24;100761.94;4166443;28;20079;-67
2022/12/07 07:12:17;;;;;;;11.70;7.22;;;;;;;4.98;74.99;100769.69;4166408;28;20045;-67
2022/12/07 07:14:21;;;;;;;9.95;7.25;;;;;;;4.97;75.27;100766.22;4164844;28;20045;-67
2022/12/07 07:16:24;;;;;;;10.40;7.07;;;;;;;4.98;75.27;100772.25;4165113;28;20119;-67
2022/12/07 07:18:28;;;;;;;12.75;7.50;;;;;;;5.00;75.24;100766.34;4163973;28;20044;-67
2022/12/07 07:20:31;;;;;;;11.52;8.25;;;;;;;5.00;74.94;100771.50;4166266;28;20048;-67
2022/12/07 07:22:34;;;;;;;10.38;7.18;;;;;;;5.01;75.08;100767.25;4166305;28;20034;-67
2022/12/07 07:24:38;;;;;;;13.07;8.25;;;;;;;5.02;74.75;100775.06;4164758;28;20037;-67
2022/12/07 07:26:41;;;;;;;12.07;7.65;;;;;;;5.00;74.78;100765.50;4166230;28;20521;-67
2022/12/07 07:28:44;;;;;;;16.05;8.60;;;;;;;5.04;74.70;100767.38;4166281;28;20105;-67
2022/12/07 07:30:46;;;;;;;12.00;7.88;;;;;;;5.04;74.50;100773.41;4166236;28;20049;-67
2022/12/07 07:32:49;;;;;;;14.85;8.27;;;;;;;5.08;74.68;100779.56;4180029;28;20127;-68
2022/12/07 07:34:52;;;;;;;10.68;7.07;;;;;;;5.07;74.87;100782.97;4165722;28;20071;-67
2022/12/07 07:36:55;;;;;;;11.73;7.75;;;;;;;5.07;74.95;100777.81;4164886;28;20041;-67
2022/12/07 07:38:58;;;;;;;12.35;8.25;;;;;;;5.07;74.93;100772.66;4165385;28;20041;-67
2022/12/07 07:41:02;;;;;;;12.27;8.18;;;;;;;5.12;74.82;100775.44;4158324;28;20092;-67
2022/12/07 07:43:05;;;;;;;13.73;8.80;;;;;;;5.14;74.91;100769.53;4165808;28;20099;-67
2022/12/07 07:45:09;;;;;;;15.32;8.18;;;;;;;5.14;74.86;100774.69;4165749;28;20042;-67
2022/12/07 07:47:12;;;;;;;13.65;8.13;;;;;;;5.15;75.03;100770.38;4166203;28;20451;-67
2022/12/07 07:49:14;;;;;;;13.90;7.55;;;;;;;5.16;74.96;100772.16;4164860;28;20041;-67
2022/12/07 07:51:17;;;;;;;14.27;8.85;;;;;;;5.18;74.93;100779.16;4165944;28;20037;-67
2022/12/07 07:53:20;;;;;;;13.55;7.97;;;;;;;5.21;74.95;100778.38;4165636;28;20104;-67
2022/12/07 07:55:23;;;;;;;12.60;7.65;;;;;;;5.21;75.15;100780.94;4162049;28;20084;-67
2022/12/07 07:57:27;;;;;;;12.02;7.32;;;;;;;5.23;75.20;100790.50;4181103;28;20037;-67
2022/12/07 07:59:30;;;;;;;11.93;8.02;;;;;;;5.22;75.29;100782.72;4165762;28;20547;-67
2022/12/07 08:01:33;;;;;;;13.10;7.38;;;;;;;5.18;75.46;100781.72;4165829;28;20068;-67
2022/12/07 08:03:36;;;;;;;12.68;8.05;;;;;;;5.17;75.53;100787.69;4164037;28;20050;-67
2022/12/07 08:05:39;;;;;;;12.20;7.75;;;;;;;5.17;75.92;100789.38;4165650;28;20041;-67
2022/12/07 08:07:43;;;;;;;11.98;7.80;;;;;;;5.21;75.82;100794.72;4157740;28;20038;-67
2022/12/07 08:09:46;;;;;;;10.95;7.43;;;;;;;5.25;75.76;100793.16;4165024;28;20042;-67
2022/12/07 08:11:49;;;;;;;11.82;8.07;;;;;;;5.27;75.63;100800.94;4165522;28;20558;-68
2022/12/07 08:13:53;;;;;;;12.05;8.50;;;;;;;5.30;75.29;100801.06;4163964;28;20052;-67
2022/12/07 08:15:56;;;;;;;10.60;7.13;;;;;;;5.30;75.44;100798.50;4165364;28;20041;-67
2022/12/07 08:17:59;;;;;;;14.20;8.95;;;;;;;5.30;75.59;100798.50;4164151;28;20038;-67
2022/12/07 08:20:02;;;;;;;14.07;8.20;;;;;;;5.31;75.20;100802.84;4165494;28;20045;-67
2022/12/07 08:22:05;;;;;;;12.98;8.95;;;;;;;5.31;75.48;100797.69;4163138;28;20041;-67
2022/12/07 08:24:08;;;;;;;13.32;7.72;;;;;;;5.34;75.45;100795.22;4158092;28;20049;-69
2022/12/07 08:26:13;;;;;;;9.93;6.72;;;;;;;5.34;75.27;100797.81;4165286;28;20041;-67
2022/12/07 08:28:16;;;;;;;;;;;;;;;5.24;75.24;100802.59;4165869;28;20049;-67
2022/12/07 08:30:21;;;;;;;11.63;7.22;;;;;;;5.30;75.43;100795.91;4165268;28;19931;-68
2022/12/07 08:32:24;;;;;;;12.23;7.82;;;;;;;5.34;75.27;100798.66;4163844;28;20045;-68
2022/12/07 08:34:27;;;;;;;14.05;8.32;;;;;;;5.39;74.86;100793.72;4164917;28;20080;-68
2022/12/07 08:36:30;;;;;;;11.35;7.43;;;;;;;5.41;74.67;100790.38;4165191;28;20148;-68
2022/12/07 08:38:35;;;;;;;11.45;7.38;;;;;;;5.48;74.64;100793.22;4162807;28;20041;-68
2022/12/07 08:40:37;;;;;;;13.18;9.15;;;;;;;5.49;74.68;100795.84;4165247;28;20499;-68
2022/12/07 08:42:40;;;;;;;14.35;8.05;;;;;;;5.50;74.52;100800.16;4163979;28;20045;-69
2022/12/07 08:44:43;;;;;;;12.45;7.25;;;;;;;5.45;74.08;100796.53;4163388;28;20076;-68
2022/12/07 08:46:52;;;;;;;12.45;8.45;;;;;;;5.41;74.17;100800.69;4165002;28;20041;-69
2022/12/07 08:48:59;;;;;;;11.32;7.28;;;;;;;5.41;74.22;100795.53;4163868;28;20049;-68
2022/12/07 08:51:03;;;;;;;11.38;8.13;;;;;;;5.39;74.45;100796.31;4163952;28;20041;-68
2022/12/07 08:53:07;;;;;;;14.20;7.90;;;;;;;5.45;74.28;100800.81;4163730;28;20041;-68
2022/12/07 08:55:11;;;;;;;13.10;8.85;;;;;;;5.49;74.20;100793.28;4163256;28;20103;-68
2022/12/07 08:57:14;;;;;;;12.63;7.75;;;;;;;5.53;74.15;100795.13;4164917;28;20042;-68
2022/12/07 08:59:20;;;;;;;12.30;7.43;;;;;;;5.52;74.11;100790.81;4164842;28;20080;-68
2022/12/07 09:01:23;;;;;;;11.85;7.45;;;;;;;5.51;74.10;100785.59;4162876;28;20065;-68
2022/12/07 09:03:28;;;;;;;12.43;8.50;;;;;;;5.45;73.79;100793.97;4164430;28;20041;-69
2022/12/07 09:05:30;;;;;;;12.32;7.32;;;;;;;5.45;73.46;100793.06;4163498;28;20096;-68
2022/12/07 09:07:35;;;;;;;13.38;8.35;;;;;;;5.41;73.48;100790.38;4155275;28;20108;-68
2022/12/07 09:09:38;;;;;;;10.93;7.88;;;;;;;5.38;73.45;100799.69;4163355;28;20260;-68
2022/12/07 09:11:40;;;;;;;14.27;8.82;;;;;;;5.35;73.55;100795.28;4164667;28;20124;-68
2022/12/07 09:13:43;;;;;;;13.10;8.65;;;;;;;5.35;73.56;100789.25;4161443;28;20091;-68
2022/12/07 09:15:46;;;;;;;12.52;8.52;;;;;;;5.37;73.71;100795.34;4182008;28;20520;-66
2022/12/07 09:17:49;;;;;;;9.95;7.22;;;;;;;5.28;73.38;100794.97;4179891;28;20096;-66
2022/12/07 09:19:54;;;;;;;12.10;8.38;;;;;;;5.28;73.10;100801.00;4175747;28;20073;-66
2022/12/07 09:21:57;;;;;;;13.45;8.07;;;;;;;5.25;73.24;100796.59;4160727;28;20037;-66
2022/12/07 09:24:00;;;;;;;11.55;8.02;;;;;;;5.30;73.23;100801.06;4156066;28;20092;-73
2022/12/07 09:26:04;;;;;;;10.88;7.45;;;;;;;5.39;73.36;100802.34;4164428;28;20045;-69
2022/12/07 09:28:12;;;;;;;11.95;7.40;;;;;;;5.42;73.51;100796.44;4160026;28;20037;-67
2022/12/07 09:30:15;;;;;;;12.18;8.25;;;;;;;5.39;73.15;100804.03;4163034;28;20084;-70
2022/12/07 09:32:18;;;;;;;12.95;8.93;;;;;;;5.37;73.00;100805.66;4156815;28;20104;-67
2022/12/07 09:34:21;;;;;;;15.48;9.18;;;;;;;5.40;73.31;100800.63;4154157;28;20083;-70
2022/12/07 09:36:26;;;;;;;14.07;8.10;;;;;;;5.43;73.08;100805.91;4162354;28;20058;-67
2022/12/07 09:38:30;;;;;;;;;;;;;;;5.29;72.88;100805.34;4148210;28;20077;-68
2022/12/07 09:40:34;;;;;;;12.18;8.40;;;;;;;5.32;73.23;100800.31;4169486;28;19920;-67
2022/12/07 09:42:39;;;;;;;13.93;9.18;;;;;;;5.34;73.16;100800.38;4157367;28;20053;-69
2022/12/07 09:44:42;;;;;;;17.10;8.65;;;;;;;5.44;73.20;100799.94;4157516;28;20087;-67